sensor_id;sensor_type;location;lat;lon;timestamp;P1;durP1;ratioP1;P2;durP2;ratioP2
7941;SDS011;4016;50.758;7.150;2022-12-18T00:03:52;6.27;;;5.33;;
7941;SDS011;4016;50.758;7.150;2022-12-18T00:08:54;6.27;;;4.33;;
7941;SDS011;4016;50.758;7.150;2022-12-18T00:13:56;5.40;;;4.93;;
7941;SDS011;4016;50.758;7.150;2022-12-18T00:18:58;15.07;;;6.33;;
7941;SDS011;4016;50.758;7.150;2022-12-18T00:24:00;4.43;;;4.03;;
7941;SDS011;4016;50.758;7.150;2022-12-18T00:29:01;3.90;;;3.63;;
7941;SDS011;4016;50.758;7.150;2022-12-18T00:34:06;5.30;;;4.90;;
7941;SDS011;4016;50.758;7.150;2022-12-18T00:39:09;5.73;;;5.20;;
7941;SDS011;4016;50.758;7.150;2022-12-18T00:44:14;4.47;;;3.90;;
7941;SDS011;4016;50.758;7.150;2022-12-18T00:49:17;4.27;;;3.97;;
7941;SDS011;4016;50.758;7.150;2022-12-18T00:54:18;6.23;;;5.73;;
7941;SDS011;4016;50.758;7.150;2022-12-18T00:59:18;5.60;;;4.10;;
7941;SDS011;4016;50.758;7.150;2022-12-18T01:04:19;8.37;;;5.53;;
7941;SDS011;4016;50.758;7.150;2022-12-18T01:09:19;4.97;;;4.33;;
7941;SDS011;4016;50.758;7.150;2022-12-18T01:14:20;4.93;;;4.03;;
7941;SDS011;4016;50.758;7.150;2022-12-18T01:19:20;10.27;;;5.80;;
7941;SDS011;4016;50.758;7.150;2022-12-18T01:24:20;7.60;;;5.67;;
7941;SDS011;4016;50.758;7.150;2022-12-18T01:29:21;4.83;;;4.43;;
7941;SDS011;4016;50.758;7.150;2022-12-18T01:34:22;4.07;;;3.67;;
7941;SDS011;4016;50.758;7.150;2022-12-18T01:39:25;3.83;;;3.57;;
7941;SDS011;4016;50.758;7.150;2022-12-18T01:50:06;4.87;;;4.37;;
7941;SDS011;4016;50.758;7.150;2022-12-18T01:55:11;4.87;;;4.23;;
7941;SDS011;4016;50.758;7.150;2022-12-18T02:00:13;5.93;;;5.33;;
7941;SDS011;4016;50.758;7.150;2022-12-18T02:05:16;5.37;;;4.73;;
7941;SDS011;4016;50.758;7.150;2022-12-18T02:10:23;4.60;;;4.20;;
7941;SDS011;4016;50.758;7.150;2022-12-18T02:15:49;4.10;;;3.80;;
7941;SDS011;4016;50.758;7.150;2022-12-18T02:26:14;6.43;;;4.13;;
7941;SDS011;4016;50.758;7.150;2022-12-18T02:31:21;3.20;;;3.00;;
7941;SDS011;4016;50.758;7.150;2022-12-18T02:36:28;4.43;;;4.03;;
7941;SDS011;4016;50.758;7.150;2022-12-18T02:41:31;3.53;;;3.27;;
7941;SDS011;4016;50.758;7.150;2022-12-18T02:46:35;4.10;;;3.90;;
7941;SDS011;4016;50.758;7.150;2022-12-18T02:51:40;5.10;;;4.70;;
7941;SDS011;4016;50.758;7.150;2022-12-18T02:56:54;5.00;;;4.40;;
7941;SDS011;4016;50.758;7.150;2022-12-18T03:07:08;4.50;;;3.53;;
7941;SDS011;4016;50.758;7.150;2022-12-18T03:12:17;5.30;;;4.37;;
7941;SDS011;4016;50.758;7.150;2022-12-18T03:17:25;3.53;;;2.90;;
7941;SDS011;4016;50.758;7.150;2022-12-18T03:22:27;2.90;;;2.43;;
7941;SDS011;4016;50.758;7.150;2022-12-18T03:27:32;4.10;;;2.93;;
7941;SDS011;4016;50.758;7.150;2022-12-18T03:32:38;4.27;;;3.97;;
7941;SDS011;4016;50.758;7.150;2022-12-18T03:37:40;4.20;;;3.77;;
7941;SDS011;4016;50.758;7.150;2022-12-18T03:42:43;3.20;;;3.00;;
7941;SDS011;4016;50.758;7.150;2022-12-18T03:47:59;4.53;;;3.97;;
7941;SDS011;4016;50.758;7.150;2022-12-18T03:53:17;8.07;;;4.27;;
7941;SDS011;4016;50.758;7.150;2022-12-18T03:58:22;4.70;;;4.13;;
7941;SDS011;4016;50.758;7.150;2022-12-18T04:03:25;4.67;;;4.27;;
7941;SDS011;4016;50.758;7.150;2022-12-18T04:08:28;8.40;;;4.10;;
7941;SDS011;4016;50.758;7.150;2022-12-18T04:13:33;10.03;;;4.03;;
7941;SDS011;4016;50.758;7.150;2022-12-18T04:18:35;6.10;;;4.20;;
7941;SDS011;4016;50.758;7.150;2022-12-18T04:23:37;5.13;;;3.13;;
7941;SDS011;4016;50.758;7.150;2022-12-18T04:28:37;3.77;;;3.47;;
7941;SDS011;4016;50.758;7.150;2022-12-18T04:33:37;5.20;;;4.80;;
7941;SDS011;4016;50.758;7.150;2022-12-18T04:38:38;10.17;;;4.67;;
7941;SDS011;4016;50.758;7.150;2022-12-18T04:43:38;6.33;;;4.30;;
7941;SDS011;4016;50.758;7.150;2022-12-18T04:48:38;6.43;;;4.57;;
7941;SDS011;4016;50.758;7.150;2022-12-18T04:53:39;5.63;;;5.13;;
7941;SDS011;4016;50.758;7.150;2022-12-18T04:58:40;7.07;;;3.93;;
7941;SDS011;4016;50.758;7.150;2022-12-18T05:03:42;4.67;;;4.27;;
7941;SDS011;4016;50.758;7.150;2022-12-18T05:08:42;7.13;;;4.90;;
7941;SDS011;4016;50.758;7.150;2022-12-18T05:13:43;4.07;;;3.57;;
7941;SDS011;4016;50.758;7.150;2022-12-18T05:18:45;4.97;;;4.30;;
7941;SDS011;4016;50.758;7.150;2022-12-18T05:23:45;3.93;;;3.57;;
7941;SDS011;4016;50.758;7.150;2022-12-18T05:28:46;7.37;;;4.80;;
7941;SDS011;4016;50.758;7.150;2022-12-18T05:33:46;5.13;;;4.73;;
7941;SDS011;4016;50.758;7.150;2022-12-18T05:38:46;4.00;;;3.77;;
7941;SDS011;4016;50.758;7.150;2022-12-18T05:43:47;4.20;;;3.83;;
7941;SDS011;4016;50.758;7.150;2022-12-18T05:48:47;9.30;;;4.37;;
7941;SDS011;4016;50.758;7.150;2022-12-18T05:53:50;5.50;;;4.57;;
7941;SDS011;4016;50.758;7.150;2022-12-18T05:58:51;4.30;;;4.00;;
7941;SDS011;4016;50.758;7.150;2022-12-18T06:03:53;5.97;;;5.47;;
7941;SDS011;4016;50.758;7.150;2022-12-18T06:08:54;5.67;;;4.40;;
7941;SDS011;4016;50.758;7.150;2022-12-18T06:13:55;1.53;;;1.53;;
7941;SDS011;4016;50.758;7.150;2022-12-18T06:18:57;6.03;;;3.80;;
7941;SDS011;4016;50.758;7.150;2022-12-18T06:24:01;3.00;;;2.90;;
7941;SDS011;4016;50.758;7.150;2022-12-18T06:29:01;4.77;;;4.33;;
7941;SDS011;4016;50.758;7.150;2022-12-18T06:34:02;3.40;;;3.23;;
7941;SDS011;4016;50.758;7.150;2022-12-18T06:39:03;5.37;;;3.87;;
7941;SDS011;4016;50.758;7.150;2022-12-18T06:44:03;7.30;;;4.23;;
7941;SDS011;4016;50.758;7.150;2022-12-18T06:49:04;4.00;;;3.70;;
7941;SDS011;4016;50.758;7.150;2022-12-18T06:54:04;5.87;;;5.07;;
7941;SDS011;4016;50.758;7.150;2022-12-18T06:59:05;5.10;;;4.63;;
7941;SDS011;4016;50.758;7.150;2022-12-18T07:04:05;5.93;;;5.20;;
7941;SDS011;4016;50.758;7.150;2022-12-18T07:09:05;4.17;;;3.80;;
7941;SDS011;4016;50.758;7.150;2022-12-18T07:14:06;3.40;;;3.23;;
7941;SDS011;4016;50.758;7.150;2022-12-18T07:19:06;5.47;;;3.87;;
7941;SDS011;4016;50.758;7.150;2022-12-18T07:24:07;4.17;;;3.80;;
7941;SDS011;4016;50.758;7.150;2022-12-18T07:29:07;7.33;;;5.40;;
7941;SDS011;4016;50.758;7.150;2022-12-18T07:34:11;4.60;;;4.20;;
7941;SDS011;4016;50.758;7.150;2022-12-18T07:39:13;3.73;;;3.50;;
7941;SDS011;4016;50.758;7.150;2022-12-18T07:44:13;10.73;;;4.17;;
7941;SDS011;4016;50.758;7.150;2022-12-18T07:49:13;5.50;;;4.03;;
7941;SDS011;4016;50.758;7.150;2022-12-18T07:54:14;5.27;;;3.73;;
7941;SDS011;4016;50.758;7.150;2022-12-18T07:59:14;5.00;;;4.43;;
7941;SDS011;4016;50.758;7.150;2022-12-18T08:04:15;5.47;;;5.07;;
7941;SDS011;4016;50.758;7.150;2022-12-18T08:09:15;6.20;;;4.93;;
7941;SDS011;4016;50.758;7.150;2022-12-18T08:14:16;10.97;;;4.70;;
7941;SDS011;4016;50.758;7.150;2022-12-18T08:19:16;4.67;;;3.43;;
7941;SDS011;4016;50.758;7.150;2022-12-18T08:24:17;4.53;;;4.17;;
7941;SDS011;4016;50.758;7.150;2022-12-18T08:29:18;5.67;;;5.27;;
7941;SDS011;4016;50.758;7.150;2022-12-18T08:34:18;5.37;;;4.93;;
7941;SDS011;4016;50.758;7.150;2022-12-18T08:39:18;6.97;;;6.23;;
7941;SDS011;4016;50.758;7.150;2022-12-18T08:44:19;4.30;;;4.00;;
7941;SDS011;4016;50.758;7.150;2022-12-18T08:49:38;11.40;;;5.67;;
7941;SDS011;4016;50.758;7.150;2022-12-18T08:54:38;7.93;;;5.27;;
7941;SDS011;4016;50.758;7.150;2022-12-18T08:59:38;6.47;;;4.93;;
7941;SDS011;4016;50.758;7.150;2022-12-18T09:04:39;9.60;;;5.77;;
7941;SDS011;4016;50.758;7.150;2022-12-18T09:09:39;9.03;;;6.57;;
7941;SDS011;4016;50.758;7.150;2022-12-18T09:14:40;6.03;;;5.60;;
7941;SDS011;4016;50.758;7.150;2022-12-18T09:19:40;12.27;;;6.17;;
7941;SDS011;4016;50.758;7.150;2022-12-18T09:24:40;14.20;;;6.33;;
7941;SDS011;4016;50.758;7.150;2022-12-18T09:29:41;5.87;;;5.40;;
7941;SDS011;4016;50.758;7.150;2022-12-18T09:34:41;7.07;;;6.40;;
7941;SDS011;4016;50.758;7.150;2022-12-18T09:39:42;9.50;;;6.83;;
7941;SDS011;4016;50.758;7.150;2022-12-18T09:44:43;9.67;;;7.30;;
7941;SDS011;4016;50.758;7.150;2022-12-18T09:49:49;13.97;;;6.57;;
7941;SDS011;4016;50.758;7.150;2022-12-18T09:54:55;7.73;;;6.00;;
7941;SDS011;4016;50.758;7.150;2022-12-18T10:00:03;12.43;;;8.03;;
7941;SDS011;4016;50.758;7.150;2022-12-18T10:05:15;12.00;;;7.90;;
7941;SDS011;4016;50.758;7.150;2022-12-18T10:20:55;9.83;;;6.40;;
7941;SDS011;4016;50.758;7.150;2022-12-18T10:26:03;7.77;;;5.80;;
7941;SDS011;4016;50.758;7.150;2022-12-18T10:31:07;13.20;;;6.70;;
7941;SDS011;4016;50.758;7.150;2022-12-18T10:36:17;8.37;;;7.13;;
7941;SDS011;4016;50.758;7.150;2022-12-18T10:46:23;12.90;;;7.97;;
7941;SDS011;4016;50.758;7.150;2022-12-18T10:51:25;10.57;;;6.70;;
7941;SDS011;4016;50.758;7.150;2022-12-18T10:56:28;10.30;;;6.57;;
7941;SDS011;4016;50.758;7.150;2022-12-18T11:07:02;9.17;;;6.57;;
7941;SDS011;4016;50.758;7.150;2022-12-18T11:12:25;9.20;;;7.07;;
7941;SDS011;4016;50.758;7.150;2022-12-18T11:17:31;11.67;;;6.93;;
7941;SDS011;4016;50.758;7.150;2022-12-18T11:22:35;11.13;;;6.60;;
7941;SDS011;4016;50.758;7.150;2022-12-18T11:27:38;7.93;;;6.77;;
7941;SDS011;4016;50.758;7.150;2022-12-18T11:32:40;10.37;;;6.00;;
7941;SDS011;4016;50.758;7.150;2022-12-18T11:37:47;9.40;;;6.83;;
7941;SDS011;4016;50.758;7.150;2022-12-18T11:48:48;11.07;;;7.20;;
7941;SDS011;4016;50.758;7.150;2022-12-18T11:53:54;10.90;;;7.73;;
7941;SDS011;4016;50.758;7.150;2022-12-18T11:58:58;12.67;;;7.67;;
7941;SDS011;4016;50.758;7.150;2022-12-18T12:04:46;13.37;;;8.40;;
7941;SDS011;4016;50.758;7.150;2022-12-18T12:20:35;10.67;;;7.27;;
7941;SDS011;4016;50.758;7.150;2022-12-18T12:25:49;8.93;;;7.00;;
7941;SDS011;4016;50.758;7.150;2022-12-18T12:36:37;13.50;;;8.00;;
7941;SDS011;4016;50.758;7.150;2022-12-18T12:41:46;10.43;;;7.30;;
7941;SDS011;4016;50.758;7.150;2022-12-18T12:47:12;11.47;;;8.33;;
7941;SDS011;4016;50.758;7.150;2022-12-18T12:57:34;10.20;;;7.37;;
7941;SDS011;4016;50.758;7.150;2022-12-18T13:02:51;16.13;;;8.60;;
7941;SDS011;4016;50.758;7.150;2022-12-18T13:08:04;14.53;;;9.23;;
7941;SDS011;4016;50.758;7.150;2022-12-18T13:13:13;14.27;;;7.90;;
7941;SDS011;4016;50.758;7.150;2022-12-18T13:18:22;12.67;;;7.53;;
7941;SDS011;4016;50.758;7.150;2022-12-18T13:33:37;14.27;;;9.40;;
7941;SDS011;4016;50.758;7.150;2022-12-18T13:38:41;11.87;;;7.50;;
7941;SDS011;4016;50.758;7.150;2022-12-18T13:49:00;13.50;;;8.07;;
7941;SDS011;4016;50.758;7.150;2022-12-18T13:54:22;11.17;;;7.20;;
7941;SDS011;4016;50.758;7.150;2022-12-18T14:04:37;13.53;;;8.40;;
7941;SDS011;4016;50.758;7.150;2022-12-18T14:10:21;13.53;;;8.53;;
7941;SDS011;4016;50.758;7.150;2022-12-18T14:15:02;12.63;;;8.27;;
7941;SDS011;4016;50.758;7.150;2022-12-18T14:20:03;11.93;;;7.97;;
7941;SDS011;4016;50.758;7.150;2022-12-18T14:30:29;12.90;;;7.95;;
7941;SDS011;4016;50.758;7.150;2022-12-18T14:35:35;11.10;;;7.87;;
7941;SDS011;4016;50.758;7.150;2022-12-18T14:40:37;14.13;;;8.77;;
7941;SDS011;4016;50.758;7.150;2022-12-18T14:45:42;10.80;;;7.73;;
7941;SDS011;4016;50.758;7.150;2022-12-18T14:50:43;9.13;;;7.33;;
7941;SDS011;4016;50.758;7.150;2022-12-18T14:55:46;12.27;;;7.10;;
7941;SDS011;4016;50.758;7.150;2022-12-18T15:00:47;13.43;;;8.17;;
7941;SDS011;4016;50.758;7.150;2022-12-18T15:05:48;11.57;;;7.37;;
7941;SDS011;4016;50.758;7.150;2022-12-18T15:10:48;12.70;;;8.50;;
7941;SDS011;4016;50.758;7.150;2022-12-18T15:15:49;12.20;;;9.17;;
7941;SDS011;4016;50.758;7.150;2022-12-18T15:20:53;13.03;;;8.80;;
7941;SDS011;4016;50.758;7.150;2022-12-18T15:25:59;13.43;;;8.20;;
7941;SDS011;4016;50.758;7.150;2022-12-18T15:31:04;12.00;;;8.10;;
7941;SDS011;4016;50.758;7.150;2022-12-18T15:36:11;9.90;;;7.10;;
7941;SDS011;4016;50.758;7.150;2022-12-18T15:41:13;10.43;;;7.13;;
7941;SDS011;4016;50.758;7.150;2022-12-18T15:46:17;11.93;;;8.50;;
7941;SDS011;4016;50.758;7.150;2022-12-18T15:51:37;13.27;;;8.03;;
7941;SDS011;4016;50.758;7.150;2022-12-18T15:56:38;14.50;;;8.33;;
7941;SDS011;4016;50.758;7.150;2022-12-18T16:01:57;15.03;;;9.00;;
7941;SDS011;4016;50.758;7.150;2022-12-18T16:06:57;11.07;;;8.00;;
7941;SDS011;4016;50.758;7.150;2022-12-18T16:11:58;10.70;;;8.17;;
7941;SDS011;4016;50.758;7.150;2022-12-18T16:17:02;13.43;;;9.03;;
7941;SDS011;4016;50.758;7.150;2022-12-18T16:22:05;10.73;;;8.03;;
7941;SDS011;4016;50.758;7.150;2022-12-18T16:27:05;13.47;;;8.23;;
7941;SDS011;4016;50.758;7.150;2022-12-18T16:32:08;19.27;;;8.93;;
7941;SDS011;4016;50.758;7.150;2022-12-18T16:37:14;12.40;;;8.47;;
7941;SDS011;4016;50.758;7.150;2022-12-18T16:42:16;13.60;;;8.37;;
7941;SDS011;4016;50.758;7.150;2022-12-18T16:47:18;11.53;;;9.13;;
7941;SDS011;4016;50.758;7.150;2022-12-18T16:52:19;16.37;;;9.60;;
7941;SDS011;4016;50.758;7.150;2022-12-18T16:57:20;14.73;;;9.77;;
7941;SDS011;4016;50.758;7.150;2022-12-18T17:02:22;11.07;;;8.07;;
7941;SDS011;4016;50.758;7.150;2022-12-18T17:07:25;15.97;;;9.83;;
7941;SDS011;4016;50.758;7.150;2022-12-18T17:12:26;15.80;;;9.60;;
7941;SDS011;4016;50.758;7.150;2022-12-18T17:17:26;12.73;;;9.70;;
7941;SDS011;4016;50.758;7.150;2022-12-18T17:22:26;15.10;;;8.87;;
7941;SDS011;4016;50.758;7.150;2022-12-18T17:27:27;14.83;;;9.33;;
7941;SDS011;4016;50.758;7.150;2022-12-18T17:32:27;15.37;;;10.60;;
7941;SDS011;4016;50.758;7.150;2022-12-18T17:37:28;17.33;;;10.77;;
7941;SDS011;4016;50.758;7.150;2022-12-18T17:42:28;13.67;;;10.00;;
7941;SDS011;4016;50.758;7.150;2022-12-18T17:47:29;15.43;;;9.97;;
7941;SDS011;4016;50.758;7.150;2022-12-18T17:52:29;16.90;;;10.83;;
7941;SDS011;4016;50.758;7.150;2022-12-18T17:57:30;12.93;;;8.50;;
7941;SDS011;4016;50.758;7.150;2022-12-18T18:02:30;16.73;;;9.80;;
7941;SDS011;4016;50.758;7.150;2022-12-18T18:07:31;16.67;;;9.90;;
7941;SDS011;4016;50.758;7.150;2022-12-18T18:12:31;13.13;;;9.30;;
7941;SDS011;4016;50.758;7.150;2022-12-18T18:17:51;17.50;;;10.43;;
7941;SDS011;4016;50.758;7.150;2022-12-18T18:22:51;19.00;;;10.23;;
7941;SDS011;4016;50.758;7.150;2022-12-18T18:27:52;18.40;;;10.30;;
7941;SDS011;4016;50.758;7.150;2022-12-18T18:32:52;16.17;;;10.07;;
7941;SDS011;4016;50.758;7.150;2022-12-18T18:37:52;18.47;;;9.87;;
7941;SDS011;4016;50.758;7.150;2022-12-18T18:42:53;16.20;;;10.07;;
7941;SDS011;4016;50.758;7.150;2022-12-18T18:47:53;15.10;;;9.23;;
7941;SDS011;4016;50.758;7.150;2022-12-18T18:52:54;20.07;;;10.43;;
7941;SDS011;4016;50.758;7.150;2022-12-18T18:57:54;14.93;;;8.70;;
7941;SDS011;4016;50.758;7.150;2022-12-18T19:02:54;17.27;;;9.73;;
7941;SDS011;4016;50.758;7.150;2022-12-18T19:07:55;17.23;;;9.97;;
7941;SDS011;4016;50.758;7.150;2022-12-18T19:12:55;17.40;;;9.83;;
7941;SDS011;4016;50.758;7.150;2022-12-18T19:18:14;16.97;;;9.93;;
7941;SDS011;4016;50.758;7.150;2022-12-18T19:23:14;17.47;;;10.83;;
7941;SDS011;4016;50.758;7.150;2022-12-18T19:28:15;16.47;;;9.60;;
7941;SDS011;4016;50.758;7.150;2022-12-18T19:33:16;15.27;;;9.90;;
7941;SDS011;4016;50.758;7.150;2022-12-18T19:38:16;16.27;;;9.70;;
7941;SDS011;4016;50.758;7.150;2022-12-18T19:43:17;16.33;;;9.13;;
7941;SDS011;4016;50.758;7.150;2022-12-18T19:48:17;14.03;;;9.57;;
7941;SDS011;4016;50.758;7.150;2022-12-18T19:53:18;19.23;;;10.97;;
7941;SDS011;4016;50.758;7.150;2022-12-18T19:58:18;15.57;;;10.20;;
7941;SDS011;4016;50.758;7.150;2022-12-18T20:03:18;21.63;;;11.83;;
7941;SDS011;4016;50.758;7.150;2022-12-18T20:08:19;14.10;;;8.87;;
7941;SDS011;4016;50.758;7.150;2022-12-18T20:13:20;13.67;;;9.27;;
7941;SDS011;4016;50.758;7.150;2022-12-18T20:18:20;17.43;;;10.60;;
7941;SDS011;4016;50.758;7.150;2022-12-18T20:23:20;16.93;;;9.73;;
7941;SDS011;4016;50.758;7.150;2022-12-18T20:28:22;15.90;;;9.10;;
7941;SDS011;4016;50.758;7.150;2022-12-18T20:33:23;18.27;;;9.67;;
7941;SDS011;4016;50.758;7.150;2022-12-18T20:38:23;17.80;;;10.23;;
7941;SDS011;4016;50.758;7.150;2022-12-18T20:43:23;15.87;;;9.00;;
7941;SDS011;4016;50.758;7.150;2022-12-18T20:48:24;17.83;;;10.60;;
7941;SDS011;4016;50.758;7.150;2022-12-18T20:53:24;16.73;;;9.87;;
7941;SDS011;4016;50.758;7.150;2022-12-18T20:58:24;16.43;;;9.03;;
7941;SDS011;4016;50.758;7.150;2022-12-18T21:03:25;16.80;;;9.57;;
7941;SDS011;4016;50.758;7.150;2022-12-18T21:08:25;13.97;;;9.43;;
7941;SDS011;4016;50.758;7.150;2022-12-18T21:13:26;18.37;;;9.73;;
7941;SDS011;4016;50.758;7.150;2022-12-18T21:18:26;13.57;;;8.70;;
7941;SDS011;4016;50.758;7.150;2022-12-18T21:23:26;17.77;;;10.10;;
7941;SDS011;4016;50.758;7.150;2022-12-18T21:28:27;18.37;;;9.40;;
7941;SDS011;4016;50.758;7.150;2022-12-18T21:33:27;15.97;;;9.27;;
7941;SDS011;4016;50.758;7.150;2022-12-18T21:38:27;18.10;;;10.63;;
7941;SDS011;4016;50.758;7.150;2022-12-18T21:43:28;17.13;;;9.93;;
7941;SDS011;4016;50.758;7.150;2022-12-18T21:48:46;18.53;;;9.33;;
7941;SDS011;4016;50.758;7.150;2022-12-18T21:53:47;14.10;;;8.40;;
7941;SDS011;4016;50.758;7.150;2022-12-18T21:58:48;13.30;;;8.40;;
7941;SDS011;4016;50.758;7.150;2022-12-18T22:03:49;11.67;;;8.70;;
7941;SDS011;4016;50.758;7.150;2022-12-18T22:08:49;13.40;;;9.20;;
7941;SDS011;4016;50.758;7.150;2022-12-18T22:13:49;14.87;;;7.70;;
7941;SDS011;4016;50.758;7.150;2022-12-18T22:18:50;17.73;;;8.77;;
7941;SDS011;4016;50.758;7.150;2022-12-18T22:23:51;13.30;;;8.57;;
7941;SDS011;4016;50.758;7.150;2022-12-18T22:29:01;16.53;;;8.80;;
7941;SDS011;4016;50.758;7.150;2022-12-18T22:34:21;20.13;;;8.90;;
7941;SDS011;4016;50.758;7.150;2022-12-18T22:39:22;15.37;;;9.97;;
7941;SDS011;4016;50.758;7.150;2022-12-18T22:44:24;14.23;;;8.37;;
7941;SDS011;4016;50.758;7.150;2022-12-18T22:49:25;21.33;;;10.83;;
7941;SDS011;4016;50.758;7.150;2022-12-18T22:54:25;14.90;;;9.97;;
7941;SDS011;4016;50.758;7.150;2022-12-18T22:59:26;13.27;;;8.43;;
7941;SDS011;4016;50.758;7.150;2022-12-18T23:04:26;18.70;;;10.77;;
7941;SDS011;4016;50.758;7.150;2022-12-18T23:09:27;17.60;;;10.03;;
7941;SDS011;4016;50.758;7.150;2022-12-18T23:14:28;15.00;;;9.87;;
7941;SDS011;4016;50.758;7.150;2022-12-18T23:19:28;14.63;;;9.07;;
7941;SDS011;4016;50.758;7.150;2022-12-18T23:24:29;16.47;;;8.70;;
7941;SDS011;4016;50.758;7.150;2022-12-18T23:29:29;18.53;;;10.60;;
7941;SDS011;4016;50.758;7.150;2022-12-18T23:34:30;15.87;;;9.70;;
7941;SDS011;4016;50.758;7.150;2022-12-18T23:39:30;15.10;;;9.53;;
7941;SDS011;4016;50.758;7.150;2022-12-18T23:44:30;16.93;;;9.83;;
7941;SDS011;4016;50.758;7.150;2022-12-18T23:49:31;15.97;;;9.57;;
7941;SDS011;4016;50.758;7.150;2022-12-18T23:54:31;16.10;;;9.40;;
7941;SDS011;4016;50.758;7.150;2022-12-18T23:59:31;16.33;;;9.77;;
